createdAt,value
2019-03-12T00:00:35.866Z,8.00
2019-03-12T00:03:05.054Z,8.53
2019-03-12T00:05:33.732Z,8.15
2019-03-12T00:08:02.784Z,8.51
2019-03-12T00:10:31.450Z,8.14
2019-03-12T00:13:00.169Z,7.62
2019-03-12T00:15:29.384Z,6.85
2019-03-12T00:17:57.994Z,7.61
2019-03-12T00:20:26.613Z,7.82
2019-03-12T00:22:55.288Z,7.90
2019-03-12T00:25:23.942Z,6.82
2019-03-12T00:27:52.538Z,7.80
2019-03-12T00:30:21.169Z,7.56
2019-03-12T00:32:49.763Z,7.57
2019-03-12T00:35:18.619Z,8.06
2019-03-12T00:37:47.217Z,8.97
2019-03-12T00:40:15.866Z,8.21
2019-03-12T00:42:44.707Z,8.18
2019-03-12T00:45:13.390Z,8.65
2019-03-12T00:47:42.224Z,9.10
2019-03-12T00:50:10.990Z,9.19
2019-03-12T00:52:39.597Z,8.56
2019-03-12T00:55:08.271Z,8.87
2019-03-12T00:57:37.170Z,8.22
2019-03-12T01:00:06.271Z,7.58
2019-03-12T01:02:35.131Z,8.25
2019-03-12T01:05:03.835Z,8.42
2019-03-12T01:07:32.419Z,7.80
2019-03-12T01:10:01.117Z,7.96
2019-03-12T01:12:29.722Z,8.95
2019-03-12T01:14:58.311Z,8.13
2019-03-12T01:17:26.907Z,8.33
2019-03-12T01:19:55.515Z,8.41
2019-03-12T01:22:24.343Z,9.51
2019-03-12T01:24:52.942Z,8.56
2019-03-12T01:27:21.544Z,8.08
2019-03-12T01:29:50.179Z,8.39
2019-03-12T01:32:18.817Z,8.95
2019-03-12T01:34:47.420Z,9.09
2019-03-12T01:37:16.241Z,8.55
2019-03-12T01:39:45.072Z,8.32
2019-03-12T01:42:13.660Z,7.22
2019-03-12T01:44:42.248Z,8.31
2019-03-12T01:47:10.839Z,7.73
2019-03-12T01:49:39.735Z,8.45
2019-03-12T01:52:08.349Z,7.78
2019-03-12T01:54:37.207Z,8.45
2019-03-12T01:57:06.038Z,8.48
2019-03-12T01:59:34.908Z,8.22
2019-03-12T02:02:03.506Z,9.50
2019-03-12T02:04:32.175Z,8.66
2019-03-12T02:07:00.983Z,8.49
2019-03-12T02:09:30.807Z,7.79
2019-03-12T02:11:59.388Z,9.51
2019-03-12T02:14:29.343Z,9.15
2019-03-12T02:16:57.963Z,9.31
2019-03-12T02:19:26.547Z,9.28
2019-03-12T02:21:55.131Z,9.41
2019-03-12T02:24:24.259Z,9.53
2019-03-12T02:26:53.540Z,8.83
2019-03-12T02:29:22.390Z,9.06
2019-03-12T02:31:51.298Z,8.95
2019-03-12T02:34:20.135Z,9.00
2019-03-12T02:36:49.000Z,8.78
2019-03-12T02:39:17.679Z,7.62
2019-03-12T02:41:46.283Z,7.80
2019-03-12T02:44:14.978Z,8.56
2019-03-12T02:46:43.576Z,7.77
2019-03-12T02:49:12.220Z,7.67
2019-03-12T02:51:41.081Z,6.93
2019-03-12T02:54:09.736Z,7.69
2019-03-12T02:56:38.344Z,7.11
2019-03-12T02:59:06.942Z,7.20
2019-03-12T03:01:35.568Z,8.35
2019-03-12T03:04:04.489Z,7.92
2019-03-12T03:06:38.601Z,7.04
2019-03-12T03:09:07.881Z,7.79
2019-03-12T03:11:36.760Z,7.51
2019-03-12T03:14:05.359Z,8.39
2019-03-12T03:16:34.246Z,7.37
2019-03-12T03:19:02.945Z,7.08
2019-03-12T03:21:31.598Z,7.14
2019-03-12T03:24:00.178Z,7.48
2019-03-12T03:26:29.101Z,7.78
2019-03-12T03:28:57.926Z,6.89
2019-03-12T03:31:26.506Z,7.28
2019-03-12T03:33:55.096Z,7.56
2019-03-12T03:36:24.453Z,7.19
2019-03-12T03:38:53.058Z,7.63
2019-03-12T03:41:21.676Z,7.47
2019-03-12T03:43:50.627Z,7.33
2019-03-12T03:46:19.550Z,7.28
2019-03-12T03:48:48.170Z,7.79
2019-03-12T03:51:16.740Z,7.56
2019-03-12T03:53:45.349Z,8.67
2019-03-12T03:56:13.975Z,7.46
2019-03-12T03:58:42.581Z,8.15
2019-03-12T04:01:11.357Z,7.82
2019-03-12T04:03:40.187Z,7.77
2019-03-12T04:06:08.764Z,8.24
2019-03-12T04:08:37.613Z,8.73
2019-03-12T04:11:06.195Z,8.39
2019-03-12T04:13:34.971Z,7.95
2019-03-12T04:16:03.885Z,7.82
2019-03-12T04:18:32.792Z,8.21
2019-03-12T04:21:01.435Z,7.75
2019-03-12T04:23:30.060Z,7.87
2019-03-12T04:25:58.740Z,8.69
2019-03-12T04:28:27.388Z,8.51
2019-03-12T04:30:56.212Z,8.36
2019-03-12T04:34:17.688Z,8.80
2019-03-12T04:36:47.573Z,8.47
2019-03-12T04:39:16.447Z,8.16
2019-03-12T04:41:45.095Z,8.46
2019-03-12T04:44:13.706Z,8.41
2019-03-12T04:46:42.769Z,8.07
2019-03-12T04:49:11.482Z,8.78
2019-03-12T04:51:40.435Z,8.24
2019-03-12T04:54:09.373Z,7.59
2019-03-12T04:56:37.994Z,7.34
2019-03-12T04:59:06.856Z,7.64
2019-03-12T05:01:35.459Z,8.20
2019-03-12T05:04:04.072Z,7.63
2019-03-12T05:06:32.786Z,7.57
2019-03-12T05:09:01.383Z,7.30
2019-03-12T05:11:30.238Z,7.28
2019-03-12T05:14:29.583Z,7.75
2019-03-12T05:17:01.266Z,8.25
2019-03-12T05:19:29.956Z,8.31
2019-03-12T05:21:58.950Z,7.45
2019-03-12T05:24:27.550Z,7.37
2019-03-12T05:26:56.218Z,7.26
2019-03-12T05:29:24.968Z,7.34
2019-03-12T05:31:53.849Z,6.69
2019-03-12T05:34:23.379Z,7.55
2019-03-12T05:36:52.174Z,7.61
2019-03-12T05:39:20.810Z,7.16
2019-03-12T05:41:49.645Z,6.45
2019-03-12T05:44:18.310Z,7.10
2019-03-12T05:46:47.176Z,6.47
2019-03-12T05:49:15.800Z,7.10
2019-03-12T05:51:44.419Z,7.79
2019-03-12T05:54:13.078Z,7.46
2019-03-12T05:56:41.732Z,6.82
2019-03-12T05:59:10.421Z,6.61
2019-03-12T06:01:39.117Z,6.47
2019-03-12T06:04:07.781Z,7.10
2019-03-12T06:06:36.940Z,6.15
2019-03-12T06:09:07.002Z,6.45
2019-03-12T06:11:36.135Z,6.49
2019-03-12T06:14:05.396Z,7.07
2019-03-12T06:16:33.989Z,7.06
2019-03-12T06:19:02.598Z,7.13
2019-03-12T06:21:31.189Z,6.98
2019-03-12T06:24:00.174Z,7.08
2019-03-12T06:26:28.802Z,7.88
2019-03-12T06:28:57.404Z,8.47
2019-03-12T06:31:51.248Z,7.67
2019-03-12T06:34:37.554Z,7.89
2019-03-12T06:37:16.224Z,7.73
2019-03-12T06:39:50.628Z,7.22
2019-03-12T06:42:50.227Z,7.71
2019-03-12T06:45:40.725Z,7.41
2019-03-12T06:48:27.380Z,7.42
2019-03-12T06:51:18.127Z,8.51
2019-03-12T06:54:20.940Z,7.83
2019-03-12T06:57:05.982Z,7.80
2019-03-12T06:59:56.432Z,7.67
2019-03-12T07:02:46.936Z,6.76
2019-03-12T07:05:34.580Z,7.86
2019-03-12T07:08:22.236Z,7.48
2019-03-12T07:11:00.021Z,7.81
2019-03-12T07:13:53.824Z,8.22
2019-03-12T07:16:40.526Z,8.57
2019-03-12T07:19:40.428Z,7.86
2019-03-12T07:22:28.527Z,8.35
2019-03-12T07:25:02.882Z,8.91
2019-03-12T07:27:48.449Z,8.70
2019-03-12T07:30:38.910Z,9.38
2019-03-12T07:33:19.286Z,8.31
2019-03-12T07:35:58.372Z,9.77
2019-03-12T07:38:43.871Z,8.90
2019-03-12T07:41:31.297Z,8.85
2019-03-12T07:44:10.840Z,9.20
2019-03-12T07:46:46.605Z,8.89
2019-03-12T07:49:44.056Z,8.62
2019-03-12T07:52:19.096Z,8.50
2019-03-12T07:55:12.969Z,8.61
2019-03-12T07:58:00.274Z,9.05
2019-03-12T08:01:02.961Z,8.62
2019-03-12T08:03:49.403Z,9.17
2019-03-12T08:06:28.938Z,10.27
2019-03-12T08:09:13.419Z,9.96
2019-03-12T08:12:01.124Z,9.83
2019-03-12T08:14:36.401Z,9.56
2019-03-12T08:17:24.170Z,10.90
2019-03-12T08:20:19.643Z,11.77
2019-03-12T08:23:16.360Z,11.27
2019-03-12T08:26:21.908Z,11.70
2019-03-12T08:29:08.230Z,11.24
2019-03-12T08:31:45.421Z,11.70
2019-03-12T08:34:24.953Z,11.44
2019-03-12T08:37:11.327Z,11.58
2019-03-12T08:40:11.067Z,11.60
2019-03-12T08:42:54.516Z,10.91
2019-03-12T08:45:34.185Z,10.78
2019-03-12T08:48:13.143Z,10.72
2019-03-12T08:50:51.028Z,11.70
2019-03-12T08:53:27.081Z,10.29
2019-03-12T08:56:06.035Z,10.65
2019-03-12T08:58:47.497Z,11.13
2019-03-12T09:01:39.229Z,10.79
2019-03-12T09:04:34.440Z,10.17
2019-03-12T09:07:19.029Z,10.44
2019-03-12T09:09:56.585Z,11.47
2019-03-12T09:12:34.303Z,9.42
2019-03-12T09:15:20.605Z,9.66
2019-03-12T09:18:04.626Z,10.04
2019-03-12T09:20:50.788Z,9.77
2019-03-12T09:23:38.180Z,9.47
2019-03-12T09:26:21.559Z,10.17
2019-03-12T09:29:07.805Z,10.61
2019-03-12T09:32:07.755Z,10.67
2019-03-12T09:34:58.170Z,11.30
2019-03-12T09:37:45.855Z,12.28
2019-03-12T09:40:33.677Z,12.59
2019-03-12T09:43:21.730Z,12.77
2019-03-12T09:45:56.419Z,12.20
2019-03-12T09:48:30.954Z,12.45
2019-03-12T09:51:05.494Z,11.20
2019-03-12T09:53:39.312Z,12.91
2019-03-12T09:56:14.504Z,12.49
2019-03-12T09:58:50.598Z,10.65
2019-03-12T10:01:29.608Z,11.47
2019-03-12T10:04:26.311Z,12.60
2019-03-12T10:07:06.480Z,12.74
2019-03-12T10:09:42.241Z,12.84
2019-03-12T10:12:18.409Z,12.09
2019-03-12T10:14:58.736Z,12.97
2019-03-12T10:17:44.246Z,13.01
2019-03-12T10:20:30.646Z,11.36
2019-03-12T10:23:05.295Z,11.48
2019-03-12T10:25:41.732Z,12.14
2019-03-12T10:28:22.511Z,12.12
2019-03-12T10:30:59.114Z,11.49
2019-03-12T10:33:45.506Z,11.05
2019-03-12T10:36:31.241Z,11.11
2019-03-12T10:39:47.839Z,11.95
2019-03-12T10:42:35.715Z,11.98
2019-03-12T10:45:09.914Z,12.35
2019-03-12T10:47:38.753Z,12.22
2019-03-12T10:50:07.483Z,11.88
2019-03-12T10:52:36.070Z,12.75
2019-03-12T10:55:12.873Z,12.95
2019-03-12T10:57:35.148Z,12.57
2019-03-12T11:00:03.965Z,13.42
2019-03-12T11:02:32.569Z,12.37
2019-03-12T11:05:01.171Z,11.41
2019-03-12T11:07:29.893Z,11.54
2019-03-12T11:09:58.744Z,11.59
2019-03-12T11:12:27.371Z,11.69
2019-03-12T11:14:56.023Z,11.88
2019-03-12T11:17:24.843Z,10.38
2019-03-12T11:19:53.522Z,10.35
2019-03-12T11:22:22.371Z,10.34
2019-03-12T11:24:50.961Z,11.98
2019-03-12T11:27:20.436Z,12.33
2019-03-12T11:29:49.032Z,10.80
2019-03-12T11:32:17.629Z,11.24
2019-03-12T11:34:46.253Z,11.28
2019-03-12T11:37:15.055Z,12.10
2019-03-12T11:39:44.122Z,11.83
2019-03-12T11:42:12.711Z,12.42
2019-03-12T11:44:41.783Z,13.17
2019-03-12T11:47:10.804Z,11.77
2019-03-12T11:49:39.576Z,11.52
2019-03-12T11:52:08.270Z,12.06
2019-03-12T11:54:36.854Z,11.61
2019-03-12T11:57:05.511Z,11.51
2019-03-12T11:59:34.637Z,12.04
2019-03-12T12:02:03.249Z,12.45
2019-03-12T12:04:31.910Z,12.47
2019-03-12T12:07:00.500Z,12.08
2019-03-12T12:09:29.395Z,12.67
2019-03-12T12:11:58.484Z,11.71
2019-03-12T12:14:27.088Z,12.65
2019-03-12T12:16:55.739Z,12.71
2019-03-12T12:19:24.575Z,11.73
2019-03-12T12:21:53.217Z,12.28
2019-03-12T12:24:22.038Z,11.77
2019-03-12T12:26:50.618Z,13.70
2019-03-12T12:29:19.203Z,12.43
2019-03-12T12:31:47.867Z,12.64
2019-03-12T12:34:16.451Z,14.02
2019-03-12T12:36:45.463Z,14.02
2019-03-12T12:39:14.042Z,13.43
2019-03-12T12:41:42.625Z,12.86
2019-03-12T12:44:11.564Z,14.05
2019-03-12T12:46:40.392Z,12.98
2019-03-12T12:49:09.442Z,11.79
2019-03-12T12:51:38.098Z,11.79
2019-03-12T12:54:09.585Z,11.15
2019-03-12T12:56:37.473Z,11.77
2019-03-12T12:59:06.052Z,12.13
2019-03-12T13:01:34.929Z,12.49
2019-03-12T13:04:03.747Z,13.02
2019-03-12T13:06:32.416Z,11.24
2019-03-12T13:09:01.076Z,11.23
2019-03-12T13:11:29.665Z,12.62
2019-03-12T13:13:58.495Z,12.51
2019-03-12T13:16:27.133Z,12.44
2019-03-12T13:18:55.829Z,12.43
2019-03-12T13:21:24.461Z,12.89
2019-03-12T13:23:53.068Z,12.33
2019-03-12T13:26:21.667Z,12.33
2019-03-12T13:28:50.413Z,11.82
2019-03-12T13:31:19.493Z,12.24
2019-03-12T13:33:48.384Z,12.20
2019-03-12T13:36:18.266Z,11.81
2019-03-12T13:38:48.257Z,11.98
2019-03-12T13:41:17.276Z,12.18
2019-03-12T13:43:46.394Z,12.07
2019-03-12T13:46:15.154Z,12.36
2019-03-12T13:48:43.741Z,12.13
2019-03-12T13:51:12.316Z,12.04
2019-03-12T13:53:40.942Z,11.78
2019-03-12T13:56:09.840Z,11.00
2019-03-12T13:58:38.551Z,12.91
2019-03-12T14:01:07.363Z,12.40
2019-03-12T14:03:36.805Z,12.86
2019-03-12T14:06:05.383Z,12.46
2019-03-12T14:08:33.964Z,12.63
2019-03-12T14:11:03.073Z,12.97
2019-03-12T14:13:31.888Z,13.60
2019-03-12T14:16:00.541Z,13.84
2019-03-12T14:18:29.623Z,12.35
2019-03-12T14:21:12.866Z,13.62
2019-03-12T14:23:48.978Z,13.31
2019-03-12T14:26:17.710Z,13.75
2019-03-12T14:28:46.358Z,13.86
2019-03-12T14:31:15.015Z,12.80
2019-03-12T14:33:43.912Z,12.91
2019-03-12T14:36:12.603Z,12.95
2019-03-12T14:38:41.449Z,13.79
2019-03-12T14:41:10.842Z,12.99
2019-03-12T14:43:40.215Z,12.22
2019-03-12T14:46:08.898Z,12.14
2019-03-12T14:48:51.536Z,13.65
2019-03-12T14:51:29.593Z,13.22
2019-03-12T14:53:58.447Z,13.79
2019-03-12T14:56:29.051Z,13.62
2019-03-12T14:58:58.100Z,12.45
2019-03-12T15:01:27.182Z,13.31
2019-03-12T15:03:55.799Z,11.91
2019-03-12T15:06:27.965Z,12.15
2019-03-12T15:08:55.976Z,12.02
2019-03-12T15:11:24.606Z,10.74
2019-03-12T15:13:53.499Z,11.82
2019-03-12T15:16:22.100Z,11.83
2019-03-12T15:18:52.007Z,11.23
2019-03-12T15:21:20.981Z,11.71
2019-03-12T15:23:49.637Z,10.14
2019-03-12T15:26:18.604Z,10.66
2019-03-12T15:28:48.899Z,10.10
2019-03-12T15:31:17.963Z,9.50
2019-03-12T15:33:46.796Z,10.05
2019-03-12T15:36:15.436Z,9.60
2019-03-12T15:38:44.044Z,9.15
2019-03-12T15:41:12.624Z,8.88
2019-03-12T15:43:41.217Z,9.00
2019-03-12T15:46:10.133Z,9.74
2019-03-12T15:48:39.516Z,9.33
2019-03-12T15:51:08.637Z,9.62
2019-03-12T15:53:37.210Z,9.73
2019-03-12T15:56:05.787Z,9.08
2019-03-12T15:58:34.363Z,9.37
2019-03-12T16:01:03.285Z,9.86
2019-03-12T16:03:31.865Z,9.92
2019-03-12T16:06:00.472Z,9.43
2019-03-12T16:08:29.092Z,9.47
2019-03-12T16:10:58.644Z,9.24
2019-03-12T16:13:27.283Z,9.83
2019-03-12T16:15:56.664Z,10.05
2019-03-12T16:18:25.274Z,10.83
2019-03-12T16:20:53.949Z,9.31
2019-03-12T16:23:22.938Z,10.11
2019-03-12T16:25:51.545Z,11.15
2019-03-12T16:28:20.366Z,9.73
2019-03-12T16:30:49.211Z,9.92
2019-03-12T16:33:17.804Z,8.88
2019-03-12T16:35:46.438Z,9.13
2019-03-12T16:38:15.022Z,9.71
2019-03-12T16:40:43.688Z,9.03
2019-03-12T16:43:12.290Z,9.05
2019-03-12T16:45:41.370Z,9.84
2019-03-12T16:48:09.945Z,8.69
2019-03-12T16:50:38.798Z,9.66
2019-03-12T16:53:07.400Z,10.40
2019-03-12T16:55:36.159Z,10.13
2019-03-12T16:58:04.758Z,10.29
2019-03-12T17:00:33.582Z,10.37
2019-03-12T17:03:02.446Z,10.39
2019-03-12T17:05:31.068Z,10.75
2019-03-12T17:07:59.651Z,9.50
2019-03-12T17:10:28.376Z,9.73
2019-03-12T17:12:57.065Z,10.06
2019-03-12T17:15:25.694Z,10.09
2019-03-12T17:17:54.281Z,10.02
2019-03-12T17:20:23.487Z,9.60
2019-03-12T17:22:52.092Z,9.78
2019-03-12T17:25:21.017Z,9.32
2019-03-12T17:27:51.705Z,8.87
2019-03-12T17:30:20.239Z,8.98
2019-03-12T17:32:48.980Z,9.39
2019-03-12T17:35:20.213Z,9.25
2019-03-12T17:37:48.881Z,9.44
2019-03-12T17:40:19.310Z,9.37
2019-03-12T17:42:48.393Z,9.74
2019-03-12T17:45:17.280Z,8.80
2019-03-12T17:47:46.134Z,8.98
2019-03-12T17:50:14.807Z,10.14
2019-03-12T17:52:43.402Z,9.17
2019-03-12T17:55:12.649Z,8.90
2019-03-12T17:57:41.572Z,8.65
2019-03-12T18:00:13.385Z,8.75
2019-03-12T18:02:42.984Z,8.57
2019-03-12T18:05:11.961Z,8.53
2019-03-12T18:07:40.633Z,8.75
2019-03-12T18:10:10.500Z,8.56
2019-03-12T18:12:39.323Z,8.34
2019-03-12T18:15:09.497Z,8.34
2019-03-12T18:17:38.105Z,8.59
2019-03-12T18:20:08.476Z,9.32
2019-03-12T18:22:39.017Z,8.48
2019-03-12T18:25:10.956Z,8.20
2019-03-12T18:27:39.525Z,8.12
2019-03-12T18:30:10.896Z,8.13
2019-03-12T18:32:40.087Z,8.58
2019-03-12T18:35:09.255Z,8.43
2019-03-12T18:37:38.904Z,8.18
2019-03-12T18:40:09.843Z,8.38
2019-03-12T18:42:38.655Z,8.47
2019-03-12T18:45:09.152Z,8.70
2019-03-12T18:47:38.218Z,9.05
2019-03-12T18:50:09.324Z,9.67
2019-03-12T18:52:38.153Z,9.46
2019-03-12T18:55:07.537Z,9.56
2019-03-12T18:59:56.734Z,9.82
2019-03-12T19:02:28.620Z,9.09
2019-03-12T19:04:57.461Z,10.53
2019-03-12T19:07:26.107Z,8.77
2019-03-12T19:09:54.935Z,10.21
2019-03-12T19:12:23.637Z,10.01
2019-03-12T19:14:52.225Z,9.53
2019-03-12T19:17:20.850Z,10.05
2019-03-12T19:19:49.515Z,10.50
2019-03-12T19:22:18.139Z,10.18
2019-03-12T19:24:47.435Z,10.91
2019-03-12T19:27:16.264Z,10.34
2019-03-12T19:29:44.836Z,10.08
2019-03-12T19:32:28.375Z,10.99
2019-03-12T19:34:57.104Z,9.87
2019-03-12T19:37:25.746Z,9.58
2019-03-12T19:39:54.563Z,10.55
2019-03-12T19:42:23.406Z,10.86
2019-03-12T19:44:52.224Z,10.47
2019-03-12T19:47:21.460Z,10.39
2019-03-12T19:49:50.612Z,9.72
2019-03-12T19:52:19.263Z,10.12
2019-03-12T19:54:48.175Z,9.10
2019-03-12T19:57:16.805Z,9.37
2019-03-12T19:59:45.676Z,9.50
2019-03-12T20:02:16.550Z,9.77
2019-03-12T20:04:47.541Z,9.66
2019-03-12T20:07:15.849Z,10.77
2019-03-12T20:10:20.917Z,8.97
2019-03-12T20:13:24.014Z,9.96
2019-03-12T20:16:30.808Z,9.02
2019-03-12T20:20:01.827Z,10.16
2019-03-12T20:23:07.736Z,9.64
2019-03-12T20:26:13.796Z,9.87
2019-03-12T20:29:09.069Z,9.47
2019-03-12T20:32:14.518Z,10.73
2019-03-12T20:35:25.696Z,10.61
2019-03-12T20:38:49.972Z,9.91
2019-03-12T20:41:46.188Z,9.98
2019-03-12T20:44:50.914Z,10.03
2019-03-12T20:48:01.474Z,9.76
2019-03-12T20:50:58.134Z,9.53
2019-03-12T20:54:10.097Z,10.27
2019-03-12T20:57:24.912Z,9.65
2019-03-12T21:00:37.276Z,9.85
2019-03-12T21:03:47.287Z,9.94
2019-03-12T21:07:02.431Z,9.15
2019-03-12T21:10:07.440Z,9.88
2019-03-12T21:13:12.237Z,8.68
2019-03-12T21:16:13.935Z,8.87
2019-03-12T21:19:29.998Z,9.28
2019-03-12T21:22:48.594Z,9.34
2019-03-12T21:25:34.278Z,9.08
2019-03-12T21:28:42.489Z,8.98
2019-03-12T21:31:14.694Z,9.96
2019-03-12T21:33:41.701Z,9.26
2019-03-12T21:36:10.532Z,9.16
2019-03-12T21:38:39.110Z,8.20
2019-03-12T21:41:07.884Z,9.03
2019-03-12T21:43:36.534Z,8.74
2019-03-12T21:46:05.369Z,8.94
2019-03-12T21:48:33.957Z,8.85
2019-03-12T21:51:02.803Z,10.21
2019-03-12T21:53:31.527Z,9.65
2019-03-12T21:56:00.140Z,9.18
2019-03-12T21:58:28.796Z,9.71
2019-03-12T22:00:57.473Z,9.23
2019-03-12T22:03:26.096Z,9.44
2019-03-12T22:05:54.911Z,9.74
2019-03-12T22:08:25.267Z,10.34
2019-03-12T22:10:54.518Z,10.43
2019-03-12T22:13:23.154Z,10.09
2019-03-12T22:15:51.859Z,10.98
2019-03-12T22:18:20.722Z,10.39
2019-03-12T22:20:51.375Z,10.00
2019-03-12T22:23:26.214Z,10.11
2019-03-12T22:25:56.083Z,10.35
2019-03-12T22:28:24.707Z,9.96
2019-03-12T22:30:53.298Z,9.62
2019-03-12T22:33:21.891Z,11.46
2019-03-12T22:35:50.495Z,10.71
2019-03-12T22:38:19.089Z,10.72
2019-03-12T22:40:47.939Z,9.74
2019-03-12T22:43:16.525Z,10.96
2019-03-12T22:45:45.114Z,10.97
2019-03-12T22:48:13.958Z,10.39
2019-03-12T22:50:42.624Z,10.61
2019-03-12T22:53:11.471Z,9.84
2019-03-12T22:55:40.139Z,10.53
2019-03-12T22:58:08.708Z,9.54
2019-03-12T23:00:41.210Z,9.20
2019-03-12T23:03:10.116Z,8.93
2019-03-12T23:05:38.683Z,8.32
2019-03-12T23:08:07.359Z,9.02
2019-03-12T23:10:36.499Z,8.20
2019-03-12T23:13:05.325Z,8.34
2019-03-12T23:15:33.979Z,8.99
2019-03-12T23:18:02.946Z,7.46
2019-03-12T23:20:31.494Z,7.63
2019-03-12T23:23:00.153Z,7.47
2019-03-12T23:25:28.756Z,8.16
2019-03-12T23:27:57.731Z,7.58
2019-03-12T23:30:28.636Z,7.06
2019-03-12T23:32:57.145Z,7.20
2019-03-12T23:35:25.982Z,6.64
2019-03-12T23:37:54.682Z,7.54
2019-03-12T23:40:23.504Z,8.67
2019-03-12T23:42:52.150Z,7.88
2019-03-12T23:45:21.179Z,9.06
2019-03-12T23:47:50.534Z,8.97
2019-03-12T23:50:19.474Z,7.99
2019-03-12T23:52:48.391Z,7.27
2019-03-12T23:55:17.454Z,6.73
2019-03-12T23:57:46.457Z,7.63
